createdAt,value
2023-05-22T00:00:32.658Z,20.45
2023-05-22T00:02:59.894Z,20.43
2023-05-22T00:05:26.927Z,20.43
2023-05-22T00:07:54.056Z,20.44
2023-05-22T00:10:21.029Z,20.41
2023-05-22T00:12:48.124Z,20.41
2023-05-22T00:15:15.108Z,20.43
2023-05-22T00:17:42.457Z,20.41
2023-05-22T00:20:11.306Z,20.43
2023-05-22T00:22:38.531Z,20.39
2023-05-22T00:25:06.972Z,20.41
2023-05-22T00:27:35.008Z,20.40
2023-05-22T00:30:02.194Z,20.40
2023-05-22T00:32:30.272Z,20.37
2023-05-22T00:34:57.566Z,20.33
2023-05-22T00:37:25.586Z,20.29
2023-05-22T00:39:52.841Z,20.29
2023-05-22T00:42:24.306Z,20.28
2023-05-22T00:44:51.864Z,20.23
2023-05-22T00:47:24.119Z,20.24
2023-05-22T00:49:51.231Z,20.24
2023-05-22T00:52:19.404Z,20.19
2023-05-22T00:54:47.182Z,20.21
2023-05-22T00:57:14.520Z,20.21
2023-05-22T00:59:41.551Z,20.19
2023-05-22T01:02:09.120Z,20.23
2023-05-22T01:04:37.462Z,20.21
2023-05-22T01:07:06.286Z,20.21
2023-05-22T01:09:33.540Z,20.21
2023-05-22T01:12:34.547Z,20.28
2023-05-22T01:15:22.102Z,20.26
2023-05-22T01:18:13.602Z,20.26
2023-05-22T01:20:49.043Z,20.24
2023-05-22T01:24:06.966Z,20.30
2023-05-22T01:27:26.288Z,20.29
2023-05-22T01:30:10.299Z,20.25
2023-05-22T01:32:39.046Z,20.24
2023-05-22T01:35:11.164Z,20.24
2023-05-22T01:37:40.024Z,20.25
2023-05-22T01:40:10.415Z,20.26
2023-05-22T01:42:41.332Z,20.26
2023-05-22T01:45:11.638Z,20.27
2023-05-22T01:47:39.020Z,20.27
2023-05-22T01:50:06.925Z,20.27
2023-05-22T01:52:47.437Z,20.29
2023-05-22T01:55:43.116Z,20.22
2023-05-22T01:58:12.962Z,20.21
2023-05-22T02:00:43.877Z,20.21
2023-05-22T02:03:17.924Z,20.20
2023-05-22T02:05:47.204Z,20.21
2023-05-22T02:08:14.887Z,20.20
2023-05-22T02:10:43.631Z,20.20
2023-05-22T02:13:11.202Z,20.21
2023-05-22T02:15:38.401Z,20.18
2023-05-22T02:18:11.120Z,20.17
2023-05-22T02:20:38.455Z,20.13
2023-05-22T02:23:05.989Z,20.15
2023-05-22T02:25:33.048Z,20.15
2023-05-22T02:28:00.180Z,20.15
2023-05-22T02:30:27.261Z,20.16
2023-05-22T02:32:58.052Z,20.14
2023-05-22T02:35:25.045Z,20.14
2023-05-22T02:37:53.051Z,20.13
2023-05-22T02:40:20.272Z,20.09
2023-05-22T02:42:47.351Z,20.12
2023-05-22T02:45:14.625Z,20.10
2023-05-22T02:47:42.205Z,20.06
2023-05-22T02:50:09.577Z,20.05
2023-05-22T02:52:37.334Z,20.05
2023-05-22T02:55:04.874Z,20.06
2023-05-22T02:57:32.106Z,20.06
2023-05-22T02:59:59.620Z,20.04
2023-05-22T03:02:28.538Z,20.07
2023-05-22T03:04:59.205Z,20.03
2023-05-22T03:07:26.560Z,20.03
2023-05-22T03:09:53.532Z,20.00
2023-05-22T03:12:21.605Z,19.94
2023-05-22T03:14:48.594Z,19.97
2023-05-22T03:17:15.820Z,19.94
2023-05-22T03:19:42.959Z,19.93
2023-05-22T03:22:10.049Z,19.96
2023-05-22T03:24:37.202Z,19.94
2023-05-22T03:27:04.400Z,19.95
2023-05-22T03:29:39.200Z,19.94
2023-05-22T03:32:06.519Z,19.92
2023-05-22T03:34:33.516Z,19.97
2023-05-22T03:37:02.685Z,19.95
2023-05-22T03:39:29.731Z,19.92
2023-05-22T03:42:01.723Z,19.94
2023-05-22T03:44:29.481Z,19.97
2023-05-22T03:46:56.562Z,19.99
2023-05-22T03:49:23.671Z,19.93
2023-05-22T03:51:50.906Z,19.92
2023-05-22T03:54:18.006Z,19.94
2023-05-22T03:56:44.959Z,19.89
2023-05-22T03:59:12.078Z,19.91
2023-05-22T04:01:39.610Z,19.92
2023-05-22T04:04:06.711Z,19.91
2023-05-22T04:06:34.347Z,19.91
2023-05-22T04:09:01.355Z,19.92
2023-05-22T04:11:30.621Z,19.91
2023-05-22T04:14:02.837Z,19.93
2023-05-22T04:16:29.930Z,19.92
2023-05-22T04:18:57.957Z,19.89
2023-05-22T04:21:25.073Z,19.94
2023-05-22T04:23:51.988Z,19.96
2023-05-22T04:26:20.846Z,19.98
2023-05-22T04:28:48.044Z,19.97
2023-05-22T04:31:15.046Z,20.00
2023-05-22T04:33:42.035Z,20.03
2023-05-22T04:36:12.348Z,20.03
2023-05-22T04:38:41.501Z,20.03
2023-05-22T04:41:19.618Z,20.02
2023-05-22T04:43:48.605Z,20.00
2023-05-22T04:46:16.481Z,20.02
2023-05-22T04:48:43.656Z,20.01
2023-05-22T04:51:10.634Z,19.98
2023-05-22T04:53:38.844Z,19.96
2023-05-22T04:56:07.274Z,20.00
2023-05-22T04:58:34.855Z,20.01
2023-05-22T05:01:03.489Z,20.02
2023-05-22T05:03:30.710Z,19.99
2023-05-22T05:05:59.674Z,20.00
2023-05-22T05:08:27.711Z,19.98
2023-05-22T05:10:54.648Z,19.99
2023-05-22T05:13:22.967Z,19.98
2023-05-22T05:15:49.998Z,19.98
2023-05-22T05:18:17.649Z,20.02
2023-05-22T05:20:44.703Z,20.03
2023-05-22T05:23:13.247Z,20.08
2023-05-22T05:25:40.301Z,20.09
2023-05-22T05:28:11.280Z,20.11
2023-05-22T05:30:40.389Z,20.09
2023-05-22T05:33:28.129Z,20.14
2023-05-22T05:36:16.396Z,20.14
2023-05-22T05:38:45.361Z,20.17
2023-05-22T05:41:13.798Z,20.17
2023-05-22T05:43:42.117Z,20.17
2023-05-22T05:46:10.090Z,20.18
2023-05-22T05:48:37.351Z,20.21
2023-05-22T05:51:05.346Z,20.20
2023-05-22T05:53:38.014Z,20.22
2023-05-22T05:56:06.820Z,20.23
2023-05-22T05:58:34.988Z,20.25
2023-05-22T06:01:20.619Z,20.24
2023-05-22T06:03:49.114Z,20.24
2023-05-22T06:06:29.933Z,20.25
2023-05-22T06:09:17.703Z,20.22
2023-05-22T06:12:19.937Z,20.23
2023-05-22T06:14:46.891Z,20.22
2023-05-22T06:17:15.659Z,20.22
2023-05-22T06:19:44.237Z,20.21
2023-05-22T06:22:11.308Z,20.23
2023-05-22T06:24:40.713Z,20.21
2023-05-22T06:27:13.558Z,20.21
2023-05-22T06:29:40.757Z,20.22
2023-05-22T06:32:08.918Z,20.22
2023-05-22T06:34:38.248Z,20.21
2023-05-22T06:37:06.282Z,20.18
2023-05-22T06:39:39.438Z,20.18
2023-05-22T06:42:44.048Z,20.14
2023-05-22T06:45:31.299Z,20.10
2023-05-22T06:48:24.272Z,20.11
2023-05-22T06:51:12.039Z,20.11
2023-05-22T06:53:41.189Z,20.16
2023-05-22T06:56:15.162Z,20.17
2023-05-22T06:58:59.207Z,20.17
2023-05-22T07:01:44.765Z,20.15
2023-05-22T07:04:15.595Z,20.15
2023-05-22T07:06:57.395Z,20.12
2023-05-22T07:09:25.185Z,20.16
2023-05-22T07:11:53.557Z,20.22
2023-05-22T07:14:21.405Z,20.29
2023-05-22T07:16:48.527Z,20.30
2023-05-22T07:19:21.517Z,20.34
2023-05-22T07:21:48.664Z,20.36
2023-05-22T07:24:18.701Z,20.35
2023-05-22T07:26:48.690Z,20.36
2023-05-22T07:29:17.223Z,20.38
2023-05-22T07:31:47.716Z,20.36
2023-05-22T07:34:14.773Z,20.42
2023-05-22T07:36:43.375Z,20.34
2023-05-22T07:39:10.495Z,20.36
2023-05-22T07:41:41.245Z,20.35
2023-05-22T07:44:12.025Z,20.40
2023-05-22T07:46:39.091Z,20.42
2023-05-22T07:49:12.075Z,20.45
2023-05-22T07:51:41.983Z,20.51
2023-05-22T07:54:10.315Z,20.54
2023-05-22T07:56:44.072Z,20.58
2023-05-22T07:59:12.213Z,20.59
2023-05-22T08:01:42.285Z,20.59
2023-05-22T08:04:09.486Z,20.54
2023-05-22T08:06:36.947Z,20.53
2023-05-22T08:09:07.291Z,20.51
2023-05-22T08:11:35.223Z,20.53
2023-05-22T08:14:02.208Z,20.49
2023-05-22T08:16:31.186Z,20.50
2023-05-22T08:18:58.191Z,20.50
2023-05-22T08:21:25.258Z,20.53
2023-05-22T08:23:52.213Z,20.55
2023-05-22T08:26:19.658Z,20.56
2023-05-22T08:28:46.573Z,20.54
2023-05-22T08:31:13.534Z,20.50
2023-05-22T08:33:40.470Z,20.51
2023-05-22T08:36:07.692Z,20.52
2023-05-22T08:38:34.966Z,20.48
2023-05-22T08:41:02.075Z,20.45
2023-05-22T08:43:29.775Z,20.43
2023-05-22T08:46:03.405Z,20.44
2023-05-22T08:48:34.579Z,20.41
2023-05-22T08:51:05.994Z,20.44
2023-05-22T08:53:37.615Z,20.44
2023-05-22T08:56:08.798Z,20.45
2023-05-22T08:58:37.206Z,20.44
2023-05-22T09:01:10.024Z,20.45
2023-05-22T09:03:37.824Z,20.43
2023-05-22T09:06:09.529Z,20.44
2023-05-22T09:08:37.058Z,20.42
2023-05-22T09:11:04.264Z,20.48
2023-05-22T09:13:32.246Z,20.42
2023-05-22T09:16:10.650Z,20.49
2023-05-22T09:18:39.077Z,20.47
2023-05-22T09:21:14.366Z,20.46
2023-05-22T09:23:52.334Z,20.51
2023-05-22T09:26:19.521Z,20.51
2023-05-22T09:28:47.549Z,20.48
2023-05-22T09:31:15.109Z,20.53
2023-05-22T09:33:44.309Z,20.50
2023-05-22T09:36:11.332Z,20.51
2023-05-22T09:38:39.481Z,20.57
2023-05-22T09:41:06.612Z,20.58
2023-05-22T09:43:33.962Z,20.62
2023-05-22T09:46:06.947Z,20.67
2023-05-22T09:48:36.689Z,20.72
2023-05-22T09:51:05.264Z,20.74
2023-05-22T09:53:33.463Z,20.83
2023-05-22T09:56:02.183Z,20.90
2023-05-22T09:58:31.663Z,20.96
2023-05-22T10:00:59.904Z,21.04
2023-05-22T10:03:27.428Z,21.19
2023-05-22T10:05:56.977Z,21.35
2023-05-22T10:08:39.167Z,21.55
2023-05-22T10:11:06.598Z,21.65
2023-05-22T10:13:36.222Z,21.79
2023-05-22T10:16:04.919Z,21.88
2023-05-22T10:18:32.394Z,21.96
2023-05-22T10:21:00.918Z,22.06
2023-05-22T10:23:29.923Z,22.12
2023-05-22T10:25:57.787Z,22.14
2023-05-22T10:28:30.756Z,22.20
2023-05-22T10:31:10.329Z,22.26
2023-05-22T10:34:08.180Z,22.22
2023-05-22T10:37:16.548Z,22.22
2023-05-22T10:39:57.152Z,22.21
2023-05-22T10:42:26.551Z,22.23
2023-05-22T10:44:53.629Z,22.25
2023-05-22T10:47:20.833Z,22.20
2023-05-22T10:49:49.828Z,22.06
2023-05-22T10:52:27.738Z,22.14
2023-05-22T10:54:54.825Z,22.21
2023-05-22T10:57:27.806Z,22.17
2023-05-22T11:00:09.002Z,22.22
2023-05-22T11:02:41.105Z,22.36
2023-05-22T11:05:14.184Z,22.48
2023-05-22T11:07:41.831Z,22.49
2023-05-22T11:10:08.848Z,22.39
2023-05-22T11:12:37.442Z,22.40
2023-05-22T11:15:09.044Z,22.48
2023-05-22T11:17:39.911Z,22.43
2023-05-22T11:20:15.666Z,22.22
2023-05-22T11:22:45.317Z,22.24
2023-05-22T11:25:18.040Z,22.26
2023-05-22T11:27:46.791Z,22.16
2023-05-22T11:30:16.804Z,22.10
2023-05-22T11:32:48.578Z,22.24
2023-05-22T11:35:18.207Z,22.44
2023-05-22T11:37:49.385Z,22.47
2023-05-22T11:40:21.434Z,22.42
2023-05-22T11:42:48.915Z,22.46
2023-05-22T11:45:15.863Z,22.45
2023-05-22T11:47:43.745Z,22.25
2023-05-22T11:50:12.768Z,22.29
2023-05-22T11:52:42.507Z,22.36
2023-05-22T11:55:11.147Z,22.44
2023-05-22T11:57:38.606Z,22.44
2023-05-22T12:00:08.759Z,22.49
2023-05-22T12:02:39.619Z,22.43
2023-05-22T12:05:10.343Z,22.39
2023-05-22T12:07:37.864Z,22.30
2023-05-22T12:10:07.577Z,22.26
2023-05-22T12:12:34.973Z,22.23
2023-05-22T12:15:05.747Z,22.31
2023-05-22T12:17:36.086Z,22.26
2023-05-22T12:20:04.850Z,22.28
2023-05-22T12:22:32.281Z,22.36
2023-05-22T12:24:59.223Z,22.48
2023-05-22T12:27:33.025Z,22.50
2023-05-22T12:30:08.514Z,22.41
2023-05-22T12:32:35.593Z,22.31
2023-05-22T12:35:02.676Z,22.30
2023-05-22T12:37:29.681Z,22.30
2023-05-22T12:40:02.019Z,22.34
2023-05-22T12:42:29.428Z,22.29
2023-05-22T12:44:58.291Z,22.24
2023-05-22T12:47:25.983Z,22.16
2023-05-22T12:49:53.680Z,22.16
2023-05-22T12:52:20.959Z,22.03
2023-05-22T12:54:48.066Z,22.04
2023-05-22T12:57:18.316Z,22.07
2023-05-22T12:59:46.006Z,21.99
2023-05-22T13:02:15.795Z,22.04
2023-05-22T13:04:43.171Z,22.00
2023-05-22T13:07:10.108Z,22.06
2023-05-22T13:09:37.369Z,22.20
2023-05-22T13:12:04.577Z,22.27
2023-05-22T13:14:34.086Z,22.35
2023-05-22T13:17:01.117Z,22.43
2023-05-22T13:19:28.191Z,22.53
2023-05-22T13:21:55.479Z,22.60
2023-05-22T13:24:22.670Z,22.71
2023-05-22T13:26:49.642Z,22.77
2023-05-22T13:29:20.015Z,22.81
2023-05-22T13:31:47.055Z,22.92
2023-05-22T13:34:14.137Z,22.95
2023-05-22T13:36:41.288Z,22.87
2023-05-22T13:39:08.209Z,22.91
2023-05-22T13:41:35.275Z,22.95
2023-05-22T13:44:02.368Z,22.96
2023-05-22T13:46:29.322Z,22.99
2023-05-22T13:48:56.353Z,22.93
2023-05-22T13:51:26.066Z,22.91
2023-05-22T13:53:53.243Z,22.92
2023-05-22T13:56:20.337Z,22.87
2023-05-22T13:58:47.945Z,22.95
2023-05-22T14:01:15.114Z,23.02
2023-05-22T14:03:45.019Z,23.00
2023-05-22T14:06:12.580Z,22.93
2023-05-22T14:08:39.616Z,22.90
2023-05-22T14:11:06.776Z,22.95
2023-05-22T14:13:33.862Z,22.84
2023-05-22T14:16:00.877Z,22.71
2023-05-22T14:18:27.921Z,22.45
2023-05-22T14:20:54.914Z,22.29
2023-05-22T14:23:24.047Z,22.22
2023-05-22T14:25:52.966Z,22.19
2023-05-22T14:28:20.089Z,22.12
2023-05-22T14:30:47.356Z,22.02
2023-05-22T14:33:14.491Z,22.10
2023-05-22T14:35:41.742Z,22.11
2023-05-22T14:38:08.777Z,21.97
2023-05-22T14:40:35.791Z,21.79
2023-05-22T14:43:02.825Z,21.72
2023-05-22T14:45:30.024Z,21.56
2023-05-22T14:47:57.071Z,21.59
2023-05-22T14:50:24.143Z,21.67
2023-05-22T14:52:51.359Z,21.65
2023-05-22T14:55:18.632Z,21.41
2023-05-22T14:57:45.899Z,21.09
2023-05-22T15:00:13.527Z,20.98
2023-05-22T15:02:41.166Z,21.06
2023-05-22T15:05:08.889Z,20.90
2023-05-22T15:07:43.979Z,20.96
2023-05-22T15:10:13.220Z,21.11
2023-05-22T15:12:40.281Z,20.97
2023-05-22T15:15:08.076Z,20.65
2023-05-22T15:17:35.002Z,20.49
2023-05-22T15:20:02.114Z,20.38
2023-05-22T15:22:29.032Z,20.43
2023-05-22T15:25:16.278Z,20.49
2023-05-22T15:27:43.598Z,20.39
2023-05-22T15:30:10.814Z,20.43
2023-05-22T15:32:38.858Z,20.25
2023-05-22T15:35:07.313Z,20.16
2023-05-22T15:37:36.578Z,20.29
2023-05-22T15:40:04.686Z,20.25
2023-05-22T15:42:32.079Z,20.40
2023-05-22T15:45:00.403Z,20.51
2023-05-22T15:47:27.655Z,20.68
2023-05-22T15:49:54.726Z,20.75
2023-05-22T15:52:23.497Z,20.75
2023-05-22T15:54:50.568Z,20.68
2023-05-22T15:57:17.774Z,20.62
2023-05-22T15:59:47.435Z,20.46
2023-05-22T16:02:14.757Z,20.19
2023-05-22T16:04:41.785Z,20.18
2023-05-22T16:07:08.828Z,20.21
2023-05-22T16:09:36.342Z,20.23
2023-05-22T16:12:04.006Z,20.35
2023-05-22T16:14:31.469Z,20.16
2023-05-22T16:16:58.551Z,20.21
2023-05-22T16:19:26.846Z,20.40
2023-05-22T16:21:54.051Z,20.38
2023-05-22T16:24:20.995Z,20.34
2023-05-22T16:26:47.927Z,20.16
2023-05-22T16:29:15.000Z,20.12
2023-05-22T16:31:42.360Z,20.11
2023-05-22T16:34:10.649Z,20.11
2023-05-22T16:36:38.380Z,20.06
2023-05-22T16:39:05.306Z,19.97
2023-05-22T16:41:32.573Z,20.02
2023-05-22T16:44:00.007Z,19.94
2023-05-22T16:46:28.096Z,19.93
2023-05-22T16:48:55.136Z,20.01
2023-05-22T16:51:22.245Z,20.05
2023-05-22T16:53:50.190Z,19.94
2023-05-22T16:56:20.593Z,20.02
2023-05-22T16:58:47.995Z,20.09
2023-05-22T17:01:15.361Z,20.10
2023-05-22T17:03:42.742Z,20.08
2023-05-22T17:06:10.197Z,19.92
2023-05-22T17:08:37.155Z,19.72
2023-05-22T17:11:04.059Z,19.76
2023-05-22T17:13:31.178Z,19.75
2023-05-22T17:15:58.104Z,19.77
2023-05-22T17:18:25.049Z,19.75
2023-05-22T17:20:54.277Z,19.79
2023-05-22T17:23:21.756Z,19.86
2023-05-22T17:25:49.160Z,19.86
2023-05-22T17:28:16.678Z,19.98
2023-05-22T17:30:47.274Z,19.94
2023-05-22T17:33:14.431Z,20.04
2023-05-22T17:35:42.123Z,20.05
2023-05-22T17:38:09.497Z,20.01
2023-05-22T17:40:44.920Z,19.97
2023-05-22T17:43:14.322Z,20.09
2023-05-22T17:45:41.926Z,20.14
2023-05-22T17:48:09.468Z,20.13
2023-05-22T17:50:36.686Z,20.13
2023-05-22T17:53:03.775Z,20.19
2023-05-22T17:55:30.731Z,20.25
2023-05-22T17:57:58.929Z,20.25
2023-05-22T18:00:26.128Z,20.25
2023-05-22T18:02:53.749Z,20.32
2023-05-22T18:05:21.090Z,20.33
2023-05-22T18:07:48.666Z,20.44
2023-05-22T18:10:15.804Z,20.52
2023-05-22T18:12:43.055Z,20.54
2023-05-22T18:15:12.239Z,20.60
2023-05-22T18:17:39.527Z,20.65
2023-05-22T18:20:08.403Z,20.63
2023-05-22T18:22:38.490Z,20.67
2023-05-22T18:25:07.322Z,20.76
2023-05-22T18:27:34.900Z,20.76
2023-05-22T18:30:03.277Z,20.80
2023-05-22T18:32:31.400Z,20.71
2023-05-22T18:34:59.860Z,20.64
2023-05-22T18:37:26.844Z,20.59
2023-05-22T18:39:53.829Z,20.66
2023-05-22T18:42:21.138Z,20.72
2023-05-22T18:44:49.067Z,20.65
2023-05-22T18:47:17.215Z,20.71
2023-05-22T18:49:44.570Z,20.69
2023-05-22T18:52:11.511Z,20.67
2023-05-22T18:54:38.425Z,20.75
2023-05-22T18:57:05.553Z,20.77
2023-05-22T18:59:32.881Z,20.71
2023-05-22T19:02:00.274Z,20.73
2023-05-22T19:04:27.329Z,20.74
2023-05-22T19:06:54.795Z,20.71
2023-05-22T19:09:22.851Z,20.77
2023-05-22T19:11:50.026Z,20.78
2023-05-22T19:14:17.360Z,20.83
2023-05-22T19:16:45.294Z,20.85
2023-05-22T19:19:12.869Z,20.87
2023-05-22T19:21:43.470Z,20.91
2023-05-22T19:24:10.554Z,20.89
2023-05-22T19:26:37.851Z,20.89
2023-05-22T19:29:04.973Z,20.85
2023-05-22T19:31:32.145Z,20.85
2023-05-22T19:33:59.183Z,20.91
2023-05-22T19:36:26.169Z,20.84
2023-05-22T19:38:59.242Z,20.89
2023-05-22T19:41:27.030Z,20.95
2023-05-22T19:43:57.070Z,20.91
2023-05-22T19:46:24.062Z,20.95
2023-05-22T19:48:51.109Z,20.91
2023-05-22T19:51:18.441Z,20.92
2023-05-22T19:53:45.512Z,20.91
2023-05-22T19:56:12.736Z,20.86
2023-05-22T19:58:40.184Z,20.92
2023-05-22T20:01:07.157Z,20.95
2023-05-22T20:03:34.207Z,20.92
2023-05-22T20:06:01.313Z,20.93
2023-05-22T20:08:28.658Z,20.99
2023-05-22T20:10:55.881Z,21.02
2023-05-22T20:13:22.933Z,21.02
2023-05-22T20:15:51.450Z,21.06
2023-05-22T20:18:18.729Z,21.08
2023-05-22T20:20:45.946Z,21.02
2023-05-22T20:23:13.013Z,21.02
2023-05-22T20:25:40.401Z,21.02
2023-05-22T20:28:07.597Z,21.05
2023-05-22T20:30:34.599Z,21.07
2023-05-22T20:33:01.648Z,21.06
2023-05-22T20:35:30.707Z,20.98
2023-05-22T20:38:03.358Z,20.99
2023-05-22T20:40:32.524Z,21.02
2023-05-22T20:43:02.554Z,21.01
2023-05-22T20:45:32.993Z,21.05
2023-05-22T20:48:00.605Z,21.05
2023-05-22T20:50:27.718Z,21.01
2023-05-22T20:52:55.002Z,21.02
2023-05-22T20:55:21.984Z,21.00
2023-05-22T20:57:48.927Z,20.99
2023-05-22T21:00:16.670Z,20.97
2023-05-22T21:02:43.856Z,20.99
2023-05-22T21:05:11.366Z,21.00
2023-05-22T21:07:40.427Z,21.00
2023-05-22T21:10:08.264Z,20.97
2023-05-22T21:12:35.386Z,20.95
2023-05-22T21:15:02.419Z,20.93
2023-05-22T21:17:29.388Z,20.92
2023-05-22T21:19:56.447Z,20.86
2023-05-22T21:22:23.527Z,20.89
2023-05-22T21:24:50.696Z,20.86
2023-05-22T21:27:17.662Z,20.86
2023-05-22T21:29:44.683Z,20.84
2023-05-22T21:32:11.712Z,20.82
2023-05-22T21:34:38.722Z,20.84
2023-05-22T21:37:05.907Z,20.81
2023-05-22T21:39:32.947Z,20.77
2023-05-22T21:42:00.130Z,20.77
2023-05-22T21:44:27.163Z,20.74
2023-05-22T21:46:54.120Z,20.71
2023-05-22T21:49:21.131Z,20.69
2023-05-22T21:51:48.181Z,20.63
2023-05-22T21:54:15.155Z,20.60
2023-05-22T21:56:42.323Z,20.59
2023-05-22T21:59:09.484Z,20.60
2023-05-22T22:01:36.608Z,20.56
2023-05-22T22:04:03.824Z,20.56
2023-05-22T22:06:31.418Z,20.52
2023-05-22T22:08:59.906Z,20.54
2023-05-22T22:11:27.580Z,20.54
2023-05-22T22:13:55.058Z,20.54
2023-05-22T22:16:22.467Z,20.53
2023-05-22T22:18:50.263Z,20.56
2023-05-22T22:21:17.502Z,20.50
2023-05-22T22:23:44.461Z,20.46
2023-05-22T22:26:12.379Z,20.42
2023-05-22T22:28:39.432Z,20.41
2023-05-22T22:31:06.487Z,20.37
2023-05-22T22:33:33.459Z,20.37
2023-05-22T22:36:00.401Z,20.32
2023-05-22T22:38:27.412Z,20.28
2023-05-22T22:40:54.720Z,20.25
2023-05-22T22:43:21.687Z,20.20
2023-05-22T22:45:48.628Z,20.25
2023-05-22T22:48:16.718Z,20.25
2023-05-22T22:50:44.208Z,20.21
2023-05-22T22:53:11.273Z,20.14
2023-05-22T22:55:38.471Z,20.09
2023-05-22T22:58:05.669Z,20.08
2023-05-22T23:00:32.952Z,20.01
2023-05-22T23:02:59.910Z,20.03
2023-05-22T23:05:27.007Z,19.98
2023-05-22T23:07:54.038Z,20.04
2023-05-22T23:10:22.121Z,20.01
2023-05-22T23:12:49.367Z,19.97
2023-05-22T23:15:16.657Z,19.98
2023-05-22T23:17:43.667Z,19.96
2023-05-22T23:20:11.118Z,19.92
2023-05-22T23:22:38.084Z,19.91
2023-05-22T23:25:05.585Z,19.89
2023-05-22T23:27:32.647Z,19.93
2023-05-22T23:29:59.753Z,19.91
2023-05-22T23:32:26.792Z,19.89
2023-05-22T23:34:53.835Z,19.87
2023-05-22T23:37:20.866Z,19.87
2023-05-22T23:39:47.975Z,19.87
2023-05-22T23:42:16.044Z,19.81
2023-05-22T23:44:43.192Z,19.83
2023-05-22T23:47:10.360Z,19.77
2023-05-22T23:49:37.405Z,19.77
2023-05-22T23:52:04.665Z,19.71
2023-05-22T23:54:31.572Z,19.71
2023-05-22T23:56:58.514Z,19.72
2023-05-22T23:59:25.522Z,19.69
